sensor_id;sensor_type;location;lat;lon;timestamp;temperature;humidity
53876;DHT22;39789;53.216;5.624;2023-04-01T00:00:53;10.00;99.90
53876;DHT22;39789;53.216;5.624;2023-04-01T00:03:20;10.00;99.90
53876;DHT22;39789;53.216;5.624;2023-04-01T00:05:46;9.90;99.90
53876;DHT22;39789;53.216;5.624;2023-04-01T00:08:12;9.90;99.90
53876;DHT22;39789;53.216;5.624;2023-04-01T00:10:37;10.00;99.90
53876;DHT22;39789;53.216;5.624;2023-04-01T00:13:03;9.90;99.90
53876;DHT22;39789;53.216;5.624;2023-04-01T00:15:29;9.90;99.90
53876;DHT22;39789;53.216;5.624;2023-04-01T00:17:54;9.90;99.90
53876;DHT22;39789;53.216;5.624;2023-04-01T00:20:20;11.00;99.90
53876;DHT22;39789;53.216;5.624;2023-04-01T00:22:46;9.90;99.90
53876;DHT22;39789;53.216;5.624;2023-04-01T00:25:11;9.90;99.90
53876;DHT22;39789;53.216;5.624;2023-04-01T00:27:37;10.70;99.90
53876;DHT22;39789;53.216;5.624;2023-04-01T00:30:03;9.90;99.90
53876;DHT22;39789;53.216;5.624;2023-04-01T00:32:29;9.90;99.90
53876;DHT22;39789;53.216;5.624;2023-04-01T00:34:55;9.90;99.90
53876;DHT22;39789;53.216;5.624;2023-04-01T00:37:21;9.90;99.90
53876;DHT22;39789;53.216;5.624;2023-04-01T00:39:48;9.90;99.90
53876;DHT22;39789;53.216;5.624;2023-04-01T00:42:14;10.00;99.90
53876;DHT22;39789;53.216;5.624;2023-04-01T00:44:40;9.90;99.90
53876;DHT22;39789;53.216;5.624;2023-04-01T00:47:06;9.90;99.90
53876;DHT22;39789;53.216;5.624;2023-04-01T00:49:35;9.90;99.90
53876;DHT22;39789;53.216;5.624;2023-04-01T00:52:04;9.90;99.90
53876;DHT22;39789;53.216;5.624;2023-04-01T00:54:32;9.90;99.90
53876;DHT22;39789;53.216;5.624;2023-04-01T00:59:45;9.90;99.90
53876;DHT22;39789;53.216;5.624;2023-04-01T01:02:14;9.90;99.90
53876;DHT22;39789;53.216;5.624;2023-04-01T01:04:40;9.90;99.90
53876;DHT22;39789;53.216;5.624;2023-04-01T01:12:53;9.90;99.90
53876;DHT22;39789;53.216;5.624;2023-04-01T01:15:30;9.90;99.90
53876;DHT22;39789;53.216;5.624;2023-04-01T01:18:04;9.80;99.90
53876;DHT22;39789;53.216;5.624;2023-04-01T01:26:46;9.90;99.90
53876;DHT22;39789;53.216;5.624;2023-04-01T01:34:36;9.90;99.90
53876;DHT22;39789;53.216;5.624;2023-04-01T01:37:14;9.80;99.90
53876;DHT22;39789;53.216;5.624;2023-04-01T01:39:43;9.80;99.90
53876;DHT22;39789;53.216;5.624;2023-04-01T01:42:13;9.90;99.90
53876;DHT22;39789;53.216;5.624;2023-04-01T01:44:43;9.80;99.90
53876;DHT22;39789;53.216;5.624;2023-04-01T01:47:10;9.80;99.90
53876;DHT22;39789;53.216;5.624;2023-04-01T01:49:36;9.80;99.90
53876;DHT22;39789;53.216;5.624;2023-04-01T01:52:02;9.80;99.90
53876;DHT22;39789;53.216;5.624;2023-04-01T01:54:29;9.80;99.90
53876;DHT22;39789;53.216;5.624;2023-04-01T01:57:05;9.80;99.90
53876;DHT22;39789;53.216;5.624;2023-04-01T01:59:33;9.80;99.90
53876;DHT22;39789;53.216;5.624;2023-04-01T02:02:02;9.80;99.90
53876;DHT22;39789;53.216;5.624;2023-04-01T02:04:35;9.80;99.90
53876;DHT22;39789;53.216;5.624;2023-04-01T02:07:04;9.80;99.90
53876;DHT22;39789;53.216;5.624;2023-04-01T02:09:32;9.80;99.90
53876;DHT22;39789;53.216;5.624;2023-04-01T02:12:03;9.80;99.90
53876;DHT22;39789;53.216;5.624;2023-04-01T02:14:50;9.80;99.90
53876;DHT22;39789;53.216;5.624;2023-04-01T02:17:19;9.80;99.90
53876;DHT22;39789;53.216;5.624;2023-04-01T02:22:43;9.80;99.90
53876;DHT22;39789;53.216;5.624;2023-04-01T02:25:17;9.80;99.90
53876;DHT22;39789;53.216;5.624;2023-04-01T02:27:44;9.70;99.90
53876;DHT22;39789;53.216;5.624;2023-04-01T02:30:12;10.10;99.90
53876;DHT22;39789;53.216;5.624;2023-04-01T02:32:39;9.80;99.90
53876;DHT22;39789;53.216;5.624;2023-04-01T02:35:07;9.80;99.90
53876;DHT22;39789;53.216;5.624;2023-04-01T02:37:36;9.80;99.90
53876;DHT22;39789;53.216;5.624;2023-04-01T02:40:03;9.80;99.90
53876;DHT22;39789;53.216;5.624;2023-04-01T02:42:30;9.80;99.90
53876;DHT22;39789;53.216;5.624;2023-04-01T02:44:55;9.80;99.90
53876;DHT22;39789;53.216;5.624;2023-04-01T02:47:21;9.80;99.90
53876;DHT22;39789;53.216;5.624;2023-04-01T02:49:46;9.80;99.90
53876;DHT22;39789;53.216;5.624;2023-04-01T02:52:12;9.80;99.90
53876;DHT22;39789;53.216;5.624;2023-04-01T02:54:38;9.80;99.90
53876;DHT22;39789;53.216;5.624;2023-04-01T02:57:03;9.80;99.90
53876;DHT22;39789;53.216;5.624;2023-04-01T02:59:29;9.80;99.90
53876;DHT22;39789;53.216;5.624;2023-04-01T03:01:54;9.80;99.90
53876;DHT22;39789;53.216;5.624;2023-04-01T03:04:20;9.80;99.90
53876;DHT22;39789;53.216;5.624;2023-04-01T03:06:46;10.70;99.90
53876;DHT22;39789;53.216;5.624;2023-04-01T03:09:11;9.80;99.90
53876;DHT22;39789;53.216;5.624;2023-04-01T03:11:37;9.80;99.90
53876;DHT22;39789;53.216;5.624;2023-04-01T03:14:02;9.80;99.90
53876;DHT22;39789;53.216;5.624;2023-04-01T03:16:28;9.80;99.90
53876;DHT22;39789;53.216;5.624;2023-04-01T03:18:53;9.80;99.90
53876;DHT22;39789;53.216;5.624;2023-04-01T03:21:23;9.80;99.90
53876;DHT22;39789;53.216;5.624;2023-04-01T03:23:49;9.80;99.90
53876;DHT22;39789;53.216;5.624;2023-04-01T03:26:15;9.80;99.90
53876;DHT22;39789;53.216;5.624;2023-04-01T03:28:41;9.80;99.90
53876;DHT22;39789;53.216;5.624;2023-04-01T03:31:07;9.80;99.90
53876;DHT22;39789;53.216;5.624;2023-04-01T03:33:33;9.80;99.90
53876;DHT22;39789;53.216;5.624;2023-04-01T03:35:59;9.80;99.90
53876;DHT22;39789;53.216;5.624;2023-04-01T03:38:24;9.80;99.90
53876;DHT22;39789;53.216;5.624;2023-04-01T03:40:50;9.90;99.90
53876;DHT22;39789;53.216;5.624;2023-04-01T03:43:15;9.90;99.90
53876;DHT22;39789;53.216;5.624;2023-04-01T03:45:46;9.90;99.90
53876;DHT22;39789;53.216;5.624;2023-04-01T03:48:12;9.90;99.90
53876;DHT22;39789;53.216;5.624;2023-04-01T03:50:38;9.90;99.90
53876;DHT22;39789;53.216;5.624;2023-04-01T03:53:04;9.90;99.90
53876;DHT22;39789;53.216;5.624;2023-04-01T03:55:29;9.90;99.90
53876;DHT22;39789;53.216;5.624;2023-04-01T03:57:55;9.90;99.90
53876;DHT22;39789;53.216;5.624;2023-04-01T04:00:21;9.80;99.90
53876;DHT22;39789;53.216;5.624;2023-04-01T04:02:47;9.90;99.90
53876;DHT22;39789;53.216;5.624;2023-04-01T04:05:13;9.80;99.90
53876;DHT22;39789;53.216;5.624;2023-04-01T04:07:40;9.80;99.90
53876;DHT22;39789;53.216;5.624;2023-04-01T04:10:06;9.80;99.90
53876;DHT22;39789;53.216;5.624;2023-04-01T04:12:32;9.70;99.90
53876;DHT22;39789;53.216;5.624;2023-04-01T04:14:57;9.70;99.90
53876;DHT22;39789;53.216;5.624;2023-04-01T04:17:23;9.70;99.90
53876;DHT22;39789;53.216;5.624;2023-04-01T04:19:49;9.70;99.90
53876;DHT22;39789;53.216;5.624;2023-04-01T04:22:14;9.70;99.90
53876;DHT22;39789;53.216;5.624;2023-04-01T04:24:40;9.70;99.90
53876;DHT22;39789;53.216;5.624;2023-04-01T04:27:06;9.70;99.90
53876;DHT22;39789;53.216;5.624;2023-04-01T04:29:31;9.70;99.90
53876;DHT22;39789;53.216;5.624;2023-04-01T04:31:57;9.70;99.90
53876;DHT22;39789;53.216;5.624;2023-04-01T04:34:22;9.70;99.90
53876;DHT22;39789;53.216;5.624;2023-04-01T04:36:48;11.10;99.90
53876;DHT22;39789;53.216;5.624;2023-04-01T04:39:14;9.70;99.90
53876;DHT22;39789;53.216;5.624;2023-04-01T04:41:40;9.70;99.90
53876;DHT22;39789;53.216;5.624;2023-04-01T04:44:06;9.80;99.90
53876;DHT22;39789;53.216;5.624;2023-04-01T04:46:32;9.70;99.90
53876;DHT22;39789;53.216;5.624;2023-04-01T04:48:57;9.80;99.90
53876;DHT22;39789;53.216;5.624;2023-04-01T04:51:23;9.80;99.90
53876;DHT22;39789;53.216;5.624;2023-04-01T04:53:49;9.80;99.90
53876;DHT22;39789;53.216;5.624;2023-04-01T04:56:19;9.80;99.90
53876;DHT22;39789;53.216;5.624;2023-04-01T04:58:45;9.80;99.90
53876;DHT22;39789;53.216;5.624;2023-04-01T05:01:13;9.80;99.90
53876;DHT22;39789;53.216;5.624;2023-04-01T05:03:39;9.70;99.90
53876;DHT22;39789;53.216;5.624;2023-04-01T05:06:06;9.80;99.90
53876;DHT22;39789;53.216;5.624;2023-04-01T05:08:33;9.80;99.90
53876;DHT22;39789;53.216;5.624;2023-04-01T05:10:59;9.80;99.90
53876;DHT22;39789;53.216;5.624;2023-04-01T05:13:25;9.70;99.90
53876;DHT22;39789;53.216;5.624;2023-04-01T05:15:51;9.80;99.90
53876;DHT22;39789;53.216;5.624;2023-04-01T05:18:17;9.70;99.90
53876;DHT22;39789;53.216;5.624;2023-04-01T05:20:50;9.70;99.90
53876;DHT22;39789;53.216;5.624;2023-04-01T05:23:16;9.70;99.90
53876;DHT22;39789;53.216;5.624;2023-04-01T05:25:42;9.80;99.90
53876;DHT22;39789;53.216;5.624;2023-04-01T05:28:08;9.80;99.90
53876;DHT22;39789;53.216;5.624;2023-04-01T05:30:34;9.80;99.90
53876;DHT22;39789;53.216;5.624;2023-04-01T05:32:59;9.80;99.90
53876;DHT22;39789;53.216;5.624;2023-04-01T05:35:25;9.80;99.90
53876;DHT22;39789;53.216;5.624;2023-04-01T05:37:50;9.80;99.90
53876;DHT22;39789;53.216;5.624;2023-04-01T05:40:16;9.80;99.90
53876;DHT22;39789;53.216;5.624;2023-04-01T05:42:42;9.80;99.90
53876;DHT22;39789;53.216;5.624;2023-04-01T05:45:08;9.80;99.90
53876;DHT22;39789;53.216;5.624;2023-04-01T05:47:34;9.80;99.90
53876;DHT22;39789;53.216;5.624;2023-04-01T05:50:00;9.80;99.90
53876;DHT22;39789;53.216;5.624;2023-04-01T05:52:25;9.80;99.90
53876;DHT22;39789;53.216;5.624;2023-04-01T05:54:51;9.80;99.90
53876;DHT22;39789;53.216;5.624;2023-04-01T05:57:16;9.80;99.90
53876;DHT22;39789;53.216;5.624;2023-04-01T05:59:42;9.70;99.90
53876;DHT22;39789;53.216;5.624;2023-04-01T06:02:09;9.70;99.90
53876;DHT22;39789;53.216;5.624;2023-04-01T06:04:39;9.70;99.90
53876;DHT22;39789;53.216;5.624;2023-04-01T06:07:11;9.70;99.90
53876;DHT22;39789;53.216;5.624;2023-04-01T06:09:37;9.70;99.90
53876;DHT22;39789;53.216;5.624;2023-04-01T06:20:19;9.60;99.90
53876;DHT22;39789;53.216;5.624;2023-04-01T06:22:57;9.60;99.90
53876;DHT22;39789;53.216;5.624;2023-04-01T06:25:53;9.60;99.90
53876;DHT22;39789;53.216;5.624;2023-04-01T06:28:55;9.60;99.90
53876;DHT22;39789;53.216;5.624;2023-04-01T06:31:35;9.60;99.90
53876;DHT22;39789;53.216;5.624;2023-04-01T06:37:28;9.60;99.90
53876;DHT22;39789;53.216;5.624;2023-04-01T06:48:39;9.70;99.90
53876;DHT22;39789;53.216;5.624;2023-04-01T06:51:35;9.70;99.90
53876;DHT22;39789;53.216;5.624;2023-04-01T06:54:09;9.70;99.90
53876;DHT22;39789;53.216;5.624;2023-04-01T06:56:37;9.80;99.90
53876;DHT22;39789;53.216;5.624;2023-04-01T07:01:44;9.80;99.90
53876;DHT22;39789;53.216;5.624;2023-04-01T07:06:58;9.90;99.90
53876;DHT22;39789;53.216;5.624;2023-04-01T07:09:41;9.90;99.90
53876;DHT22;39789;53.216;5.624;2023-04-01T07:14:59;9.90;99.90
53876;DHT22;39789;53.216;5.624;2023-04-01T07:17:30;10.00;99.90
53876;DHT22;39789;53.216;5.624;2023-04-01T07:20:19;10.00;99.90
53876;DHT22;39789;53.216;5.624;2023-04-01T07:22:51;10.00;99.90
53876;DHT22;39789;53.216;5.624;2023-04-01T07:25:26;10.00;99.90
53876;DHT22;39789;53.216;5.624;2023-04-01T07:27:56;10.00;99.90
53876;DHT22;39789;53.216;5.624;2023-04-01T07:30:25;9.90;99.90
53876;DHT22;39789;53.216;5.624;2023-04-01T07:33:05;9.90;99.90
53876;DHT22;39789;53.216;5.624;2023-04-01T07:35:40;10.50;99.90
53876;DHT22;39789;53.216;5.624;2023-04-01T07:38:15;9.90;99.90
53876;DHT22;39789;53.216;5.624;2023-04-01T07:40:48;9.80;99.90
53876;DHT22;39789;53.216;5.624;2023-04-01T07:57:12;9.80;99.90
53876;DHT22;39789;53.216;5.624;2023-04-01T08:00:08;9.90;99.90
53876;DHT22;39789;53.216;5.624;2023-04-01T08:05:59;10.00;99.90
53876;DHT22;39789;53.216;5.624;2023-04-01T08:08:32;10.00;99.90
53876;DHT22;39789;53.216;5.624;2023-04-01T08:11:16;10.00;99.90
53876;DHT22;39789;53.216;5.624;2023-04-01T08:14:15;10.00;99.90
53876;DHT22;39789;53.216;5.624;2023-04-01T08:16:53;10.00;99.90
53876;DHT22;39789;53.216;5.624;2023-04-01T08:22:16;10.00;99.90
53876;DHT22;39789;53.216;5.624;2023-04-01T08:24:46;10.00;99.90
53876;DHT22;39789;53.216;5.624;2023-04-01T08:27:37;10.00;99.90
53876;DHT22;39789;53.216;5.624;2023-04-01T08:30:24;10.00;99.90
53876;DHT22;39789;53.216;5.624;2023-04-01T08:35:40;9.90;99.90
53876;DHT22;39789;53.216;5.624;2023-04-01T08:40:57;10.00;99.90
53876;DHT22;39789;53.216;5.624;2023-04-01T08:49:30;10.10;99.90
53876;DHT22;39789;53.216;5.624;2023-04-01T08:55:02;10.30;99.90
53876;DHT22;39789;53.216;5.624;2023-04-01T09:00:29;10.30;99.90
53876;DHT22;39789;53.216;5.624;2023-04-01T09:26:16;10.30;99.90
53876;DHT22;39789;53.216;5.624;2023-04-01T09:32:01;10.30;99.90
53876;DHT22;39789;53.216;5.624;2023-04-01T09:34:45;10.40;99.90
53876;DHT22;39789;53.216;5.624;2023-04-01T09:46:08;10.40;99.90
53876;DHT22;39789;53.216;5.624;2023-04-01T09:48:46;10.60;99.90
53876;DHT22;39789;53.216;5.624;2023-04-01T09:53:48;10.70;99.90
53876;DHT22;39789;53.216;5.624;2023-04-01T10:04:50;10.30;99.90
53876;DHT22;39789;53.216;5.624;2023-04-01T10:07:51;10.30;99.90
53876;DHT22;39789;53.216;5.624;2023-04-01T10:19:14;10.30;99.90
53876;DHT22;39789;53.216;5.624;2023-04-01T10:36:46;10.00;99.90
53876;DHT22;39789;53.216;5.624;2023-04-01T10:44:45;10.00;99.90
53876;DHT22;39789;53.216;5.624;2023-04-01T10:50:38;9.90;99.90
53876;DHT22;39789;53.216;5.624;2023-04-01T11:04:20;9.70;99.90
53876;DHT22;39789;53.216;5.624;2023-04-01T11:26:41;9.10;99.90
53876;DHT22;39789;53.216;5.624;2023-04-01T11:35:19;9.10;99.90
53876;DHT22;39789;53.216;5.624;2023-04-01T11:44:03;9.20;99.90
53876;DHT22;39789;53.216;5.624;2023-04-01T11:46:52;9.30;99.90
53876;DHT22;39789;53.216;5.624;2023-04-01T11:52:39;9.30;99.90
53876;DHT22;39789;53.216;5.624;2023-04-01T11:55:25;9.20;99.90
53876;DHT22;39789;53.216;5.624;2023-04-01T12:06:32;9.30;99.90
53876;DHT22;39789;53.216;5.624;2023-04-01T12:09:25;9.30;99.90
53876;DHT22;39789;53.216;5.624;2023-04-01T12:12:18;9.40;99.90
53876;DHT22;39789;53.216;5.624;2023-04-01T12:15:26;9.40;99.90
53876;DHT22;39789;53.216;5.624;2023-04-01T12:18:18;9.40;99.90
53876;DHT22;39789;53.216;5.624;2023-04-01T12:21:00;9.40;99.90
53876;DHT22;39789;53.216;5.624;2023-04-01T12:23:40;9.30;99.90
53876;DHT22;39789;53.216;5.624;2023-04-01T12:32:31;9.20;99.90
53876;DHT22;39789;53.216;5.624;2023-04-01T12:35:24;9.20;99.90
53876;DHT22;39789;53.216;5.624;2023-04-01T12:38:08;9.20;99.90
53876;DHT22;39789;53.216;5.624;2023-04-01T12:41:03;9.20;99.90
53876;DHT22;39789;53.216;5.624;2023-04-01T12:46:51;9.20;99.90
53876;DHT22;39789;53.216;5.624;2023-04-01T12:49:47;9.20;99.90
53876;DHT22;39789;53.216;5.624;2023-04-01T12:54:57;9.30;99.90
53876;DHT22;39789;53.216;5.624;2023-04-01T12:57:44;9.30;99.90
53876;DHT22;39789;53.216;5.624;2023-04-01T13:00:26;9.30;99.90
53876;DHT22;39789;53.216;5.624;2023-04-01T13:05:48;9.20;99.90
53876;DHT22;39789;53.216;5.624;2023-04-01T13:08:52;9.20;99.90
53876;DHT22;39789;53.216;5.624;2023-04-01T13:11:44;9.30;99.90
53876;DHT22;39789;53.216;5.624;2023-04-01T13:14:29;9.30;99.90
53876;DHT22;39789;53.216;5.624;2023-04-01T13:17:18;9.30;99.90
53876;DHT22;39789;53.216;5.624;2023-04-01T13:22:45;9.30;99.90
53876;DHT22;39789;53.216;5.624;2023-04-01T13:25:22;9.30;99.90
53876;DHT22;39789;53.216;5.624;2023-04-01T13:27:58;9.40;99.90
53876;DHT22;39789;53.216;5.624;2023-04-01T13:30:32;9.40;99.90
53876;DHT22;39789;53.216;5.624;2023-04-01T13:33:25;9.30;99.90
53876;DHT22;39789;53.216;5.624;2023-04-01T13:36:11;9.20;99.90
53876;DHT22;39789;53.216;5.624;2023-04-01T13:38:56;9.10;99.90
53876;DHT22;39789;53.216;5.624;2023-04-01T13:41:38;9.10;99.90
53876;DHT22;39789;53.216;5.624;2023-04-01T13:44:11;9.20;99.90
53876;DHT22;39789;53.216;5.624;2023-04-01T13:55:21;9.30;99.90
53876;DHT22;39789;53.216;5.624;2023-04-01T13:57:52;9.20;99.90
53876;DHT22;39789;53.216;5.624;2023-04-01T14:17:27;9.00;99.90
53876;DHT22;39789;53.216;5.624;2023-04-01T14:23:11;9.00;99.90
53876;DHT22;39789;53.216;5.624;2023-04-01T14:25:54;9.00;99.90
53876;DHT22;39789;53.216;5.624;2023-04-01T14:33:45;8.90;99.90
53876;DHT22;39789;53.216;5.624;2023-04-01T14:39:43;8.90;99.90
53876;DHT22;39789;53.216;5.624;2023-04-01T14:48:31;8.70;99.90
53876;DHT22;39789;53.216;5.624;2023-04-01T14:51:10;8.60;99.90
53876;DHT22;39789;53.216;5.624;2023-04-01T14:53:51;8.60;99.90
53876;DHT22;39789;53.216;5.624;2023-04-01T14:56:40;8.50;99.90
53876;DHT22;39789;53.216;5.624;2023-04-01T14:59:10;8.40;99.90
53876;DHT22;39789;53.216;5.624;2023-04-01T15:01:57;8.40;99.90
53876;DHT22;39789;53.216;5.624;2023-04-01T15:04:41;8.40;99.90
53876;DHT22;39789;53.216;5.624;2023-04-01T15:10:43;8.40;99.90
53876;DHT22;39789;53.216;5.624;2023-04-01T15:13:38;8.40;99.90
53876;DHT22;39789;53.216;5.624;2023-04-01T15:19:12;8.30;99.90
53876;DHT22;39789;53.216;5.624;2023-04-01T15:35:46;8.00;99.90
53876;DHT22;39789;53.216;5.624;2023-04-01T15:38:36;8.00;99.90
53876;DHT22;39789;53.216;5.624;2023-04-01T15:41:23;8.00;99.90
53876;DHT22;39789;53.216;5.624;2023-04-01T15:43:51;8.00;99.90
53876;DHT22;39789;53.216;5.624;2023-04-01T16:00:02;7.90;99.90
53876;DHT22;39789;53.216;5.624;2023-04-01T16:02:49;7.80;99.90
53876;DHT22;39789;53.216;5.624;2023-04-01T16:05:37;7.80;99.90
53876;DHT22;39789;53.216;5.624;2023-04-01T16:11:37;7.80;99.90
53876;DHT22;39789;53.216;5.624;2023-04-01T16:14:12;7.70;99.90
53876;DHT22;39789;53.216;5.624;2023-04-01T16:23:10;7.70;99.90
53876;DHT22;39789;53.216;5.624;2023-04-01T16:25:49;7.60;99.90
53876;DHT22;39789;53.216;5.624;2023-04-01T16:28:38;7.60;99.90
53876;DHT22;39789;53.216;5.624;2023-04-01T16:33:52;7.70;99.90
53876;DHT22;39789;53.216;5.624;2023-04-01T16:36:30;7.60;99.90
53876;DHT22;39789;53.216;5.624;2023-04-01T16:47:40;7.40;99.90
53876;DHT22;39789;53.216;5.624;2023-04-01T16:50:20;7.40;99.90
53876;DHT22;39789;53.216;5.624;2023-04-01T16:55:21;7.40;99.90
53876;DHT22;39789;53.216;5.624;2023-04-01T16:57:52;7.90;99.90
53876;DHT22;39789;53.216;5.624;2023-04-01T17:00:27;7.30;99.90
53876;DHT22;39789;53.216;5.624;2023-04-01T17:03:29;7.30;99.90
53876;DHT22;39789;53.216;5.624;2023-04-01T17:06:21;7.30;99.90
53876;DHT22;39789;53.216;5.624;2023-04-01T17:11:38;7.10;99.90
53876;DHT22;39789;53.216;5.624;2023-04-01T17:14:17;7.10;99.90
53876;DHT22;39789;53.216;5.624;2023-04-01T17:19:49;7.00;99.90
53876;DHT22;39789;53.216;5.624;2023-04-01T17:22:49;7.00;99.90
53876;DHT22;39789;53.216;5.624;2023-04-01T17:28:33;7.10;99.90
53876;DHT22;39789;53.216;5.624;2023-04-01T17:36:42;7.00;99.90
53876;DHT22;39789;53.216;5.624;2023-04-01T17:42:00;7.00;99.90
53876;DHT22;39789;53.216;5.624;2023-04-01T17:44:39;7.00;99.90
53876;DHT22;39789;53.216;5.624;2023-04-01T17:53:15;7.00;99.90
53876;DHT22;39789;53.216;5.624;2023-04-01T17:55:48;6.90;99.90
53876;DHT22;39789;53.216;5.624;2023-04-01T18:01:17;6.80;99.90
53876;DHT22;39789;53.216;5.624;2023-04-01T18:03:55;6.90;99.90
53876;DHT22;39789;53.216;5.624;2023-04-01T18:12:56;6.90;99.90
53876;DHT22;39789;53.216;5.624;2023-04-01T18:23:59;6.90;99.90
53876;DHT22;39789;53.216;5.624;2023-04-01T18:26:32;6.80;99.90
53876;DHT22;39789;53.216;5.624;2023-04-01T18:31:51;6.90;99.90
53876;DHT22;39789;53.216;5.624;2023-04-01T18:37:01;6.90;99.90
53876;DHT22;39789;53.216;5.624;2023-04-01T18:39:41;6.90;99.90
53876;DHT22;39789;53.216;5.624;2023-04-01T18:48:00;6.90;99.90
53876;DHT22;39789;53.216;5.624;2023-04-01T18:50:34;6.90;99.90
53876;DHT22;39789;53.216;5.624;2023-04-01T18:53:30;6.80;99.90
53876;DHT22;39789;53.216;5.624;2023-04-01T18:56:13;6.80;99.90
53876;DHT22;39789;53.216;5.624;2023-04-01T19:04:06;6.70;99.90
53876;DHT22;39789;53.216;5.624;2023-04-01T19:06:52;6.70;99.90
53876;DHT22;39789;53.216;5.624;2023-04-01T19:09:31;6.70;99.90
53876;DHT22;39789;53.216;5.624;2023-04-01T19:14:46;6.70;99.90
53876;DHT22;39789;53.216;5.624;2023-04-01T19:20:40;6.70;99.90
53876;DHT22;39789;53.216;5.624;2023-04-01T19:23:38;6.70;99.90
53876;DHT22;39789;53.216;5.624;2023-04-01T19:29:26;6.70;99.90
53876;DHT22;39789;53.216;5.624;2023-04-01T19:37:50;6.70;99.90
53876;DHT22;39789;53.216;5.624;2023-04-01T19:43:02;6.60;99.90
53876;DHT22;39789;53.216;5.624;2023-04-01T19:45:43;6.60;99.90
53876;DHT22;39789;53.216;5.624;2023-04-01T19:48:36;6.60;99.90
53876;DHT22;39789;53.216;5.624;2023-04-01T19:51:33;6.60;99.90
53876;DHT22;39789;53.216;5.624;2023-04-01T19:57:00;6.50;99.90
53876;DHT22;39789;53.216;5.624;2023-04-01T19:59:50;6.50;99.90
53876;DHT22;39789;53.216;5.624;2023-04-01T20:04:55;6.50;99.90
53876;DHT22;39789;53.216;5.624;2023-04-01T20:07:37;6.50;99.90
53876;DHT22;39789;53.216;5.624;2023-04-01T20:10:10;6.40;99.90
53876;DHT22;39789;53.216;5.624;2023-04-01T20:15:54;6.40;99.90
53876;DHT22;39789;53.216;5.624;2023-04-01T20:21:28;6.40;99.90
53876;DHT22;39789;53.216;5.624;2023-04-01T20:24:04;6.40;99.90
53876;DHT22;39789;53.216;5.624;2023-04-01T20:26:38;6.30;99.90
53876;DHT22;39789;53.216;5.624;2023-04-01T20:29:27;6.30;99.90
53876;DHT22;39789;53.216;5.624;2023-04-01T20:32:17;6.40;99.90
53876;DHT22;39789;53.216;5.624;2023-04-01T20:34:50;6.40;99.90
53876;DHT22;39789;53.216;5.624;2023-04-01T20:37:44;6.40;99.90
53876;DHT22;39789;53.216;5.624;2023-04-01T20:46:16;6.30;99.90
53876;DHT22;39789;53.216;5.624;2023-04-01T20:52:17;6.30;99.90
53876;DHT22;39789;53.216;5.624;2023-04-01T20:57:42;6.30;99.90
53876;DHT22;39789;53.216;5.624;2023-04-01T21:00:24;6.30;99.90
53876;DHT22;39789;53.216;5.624;2023-04-01T21:24:44;6.20;99.90
53876;DHT22;39789;53.216;5.624;2023-04-01T21:32:36;6.10;99.90
53876;DHT22;39789;53.216;5.624;2023-04-01T21:35:36;6.10;99.90
53876;DHT22;39789;53.216;5.624;2023-04-01T21:46:48;6.00;99.90
53876;DHT22;39789;53.216;5.624;2023-04-01T21:55:18;5.90;99.90
53876;DHT22;39789;53.216;5.624;2023-04-01T22:06:27;5.90;99.90
53876;DHT22;39789;53.216;5.624;2023-04-01T22:12:09;5.80;99.90
53876;DHT22;39789;53.216;5.624;2023-04-01T22:17:26;5.80;99.90
53876;DHT22;39789;53.216;5.624;2023-04-01T22:23:01;5.80;99.90
53876;DHT22;39789;53.216;5.624;2023-04-01T22:25:56;5.80;99.90
53876;DHT22;39789;53.216;5.624;2023-04-01T22:31:02;5.80;99.90
53876;DHT22;39789;53.216;5.624;2023-04-01T22:33:34;5.80;99.90
53876;DHT22;39789;53.216;5.624;2023-04-01T22:39:00;5.80;99.90
53876;DHT22;39789;53.216;5.624;2023-04-01T22:41:46;5.70;99.90
53876;DHT22;39789;53.216;5.624;2023-04-01T22:44:33;5.70;99.90
53876;DHT22;39789;53.216;5.624;2023-04-01T22:47:15;5.60;99.90
53876;DHT22;39789;53.216;5.624;2023-04-01T22:49:59;5.60;99.90
53876;DHT22;39789;53.216;5.624;2023-04-01T22:52:37;5.50;99.90
53876;DHT22;39789;53.216;5.624;2023-04-01T22:55:22;5.60;99.90
53876;DHT22;39789;53.216;5.624;2023-04-01T22:57:58;5.50;99.90
53876;DHT22;39789;53.216;5.624;2023-04-01T23:00:33;5.40;99.90
53876;DHT22;39789;53.216;5.624;2023-04-01T23:03:17;5.50;99.90
53876;DHT22;39789;53.216;5.624;2023-04-01T23:05:56;5.40;99.90
53876;DHT22;39789;53.216;5.624;2023-04-01T23:08:35;5.40;99.90
53876;DHT22;39789;53.216;5.624;2023-04-01T23:11:09;5.40;99.90
53876;DHT22;39789;53.216;5.624;2023-04-01T23:14:04;5.30;99.90
53876;DHT22;39789;53.216;5.624;2023-04-01T23:16:39;5.20;99.90
53876;DHT22;39789;53.216;5.624;2023-04-01T23:21:46;5.00;99.90
53876;DHT22;39789;53.216;5.624;2023-04-01T23:26:57;4.80;99.90
53876;DHT22;39789;53.216;5.624;2023-04-01T23:29:24;4.80;99.90
53876;DHT22;39789;53.216;5.624;2023-04-01T23:31:59;4.70;99.90
53876;DHT22;39789;53.216;5.624;2023-04-01T23:34:35;4.70;99.90
53876;DHT22;39789;53.216;5.624;2023-04-01T23:37:04;4.60;99.90
53876;DHT22;39789;53.216;5.624;2023-04-01T23:39:37;4.60;99.90
53876;DHT22;39789;53.216;5.624;2023-04-01T23:44:32;5.20;99.90
53876;DHT22;39789;53.216;5.624;2023-04-01T23:46:59;4.40;99.90
53876;DHT22;39789;53.216;5.624;2023-04-01T23:49:41;4.40;99.90
53876;DHT22;39789;53.216;5.624;2023-04-01T23:52:24;4.40;99.90
53876;DHT22;39789;53.216;5.624;2023-04-01T23:54:55;4.40;99.90
53876;DHT22;39789;53.216;5.624;2023-04-01T23:57:31;4.30;99.90
